Time;durP1;ratioP1;P1;durP2;ratioP2;P2;SDS_P1;SDS_P2;PMS_P1;PMS_P2;Temp;Humidity;BMP_temperature;BMP_pressure;BME280_temperature;BME280_humidity;BME280_pressure;Samples;Min_cycle;Max_cycle;Signal;HPM_P1;HPM_P2
2023/05/26 00:00:07;;;;;;;3.80;2.70;;;;;;;17.32;80.01;94698.34;5069832;28;20680;-45
2023/05/26 00:02:36;;;;;;;5.47;2.63;;;;;;;17.27;79.78;94695.47;5070491;28;20681;-45
2023/05/26 00:05:04;;;;;;;2.60;2.07;;;;;;;17.26;80.02;94707.59;5069561;28;20516;-45
2023/05/26 00:07:30;;;;;;;5.63;2.50;;;;;;;17.25;80.08;94705.22;5069868;28;20568;-46
2023/05/26 00:09:57;;;;;;;3.00;2.43;;;;;;;17.24;80.13;94706.19;5069826;28;20194;-46
2023/05/26 00:12:24;;;;;;;4.87;2.37;;;;;;;17.23;80.01;94708.00;5069876;28;20596;-46
2023/05/26 00:14:51;;;;;;;5.00;2.40;;;;;;;17.21;80.24;94702.19;5069790;28;20249;-44
2023/05/26 00:17:18;;;;;;;4.47;2.80;;;;;;;17.19;80.12;94705.94;5069711;28;20252;-42
2023/05/26 00:19:48;;;;;;;2.90;2.70;;;;;;;17.18;79.94;94701.72;5071977;28;20190;-43
2023/05/26 00:22:16;;;;;;;4.23;2.70;;;;;;;17.12;80.28;94689.53;5075110;28;20236;-45
2023/05/26 00:24:43;;;;;;;3.63;2.67;;;;;;;17.13;80.28;94694.50;5069708;28;20277;-46
2023/05/26 00:27:10;;;;;;;2.90;2.63;;;;;;;17.12;80.29;94694.69;5068232;28;20249;-46
2023/05/26 00:29:37;;;;;;;7.17;2.87;;;;;;;16.97;80.34;94669.66;5069282;28;20198;-45
2023/05/26 00:32:04;;;;;;;3.60;2.90;;;;;;;17.07;80.33;94684.91;5070110;28;20206;-45
2023/05/26 00:34:31;;;;;;;5.03;3.23;;;;;;;17.07;80.40;94681.50;5069539;28;20252;-44
2023/05/26 00:36:59;;;;;;;3.77;2.90;;;;;;;17.05;80.54;94689.41;5069437;28;20287;-43
2023/05/26 00:39:25;;;;;;;3.33;3.00;;;;;;;17.03;80.52;94694.78;5069689;28;20247;-44
2023/05/26 00:41:53;;;;;;;3.40;2.60;;;;;;;17.02;80.46;94685.44;5069611;28;20194;-45
2023/05/26 00:44:19;;;;;;;3.23;2.87;;;;;;;17.01;80.44;94689.00;5070375;28;20255;-45
2023/05/26 00:46:46;;;;;;;3.33;2.93;;;;;;;16.99;80.51;94685.78;5073978;28;20661;-46
2023/05/26 00:49:13;;;;;;;3.00;2.70;;;;;;;16.96;80.51;94687.91;5076154;28;20874;-46
2023/05/26 00:51:41;;;;;;;3.57;2.93;;;;;;;16.94;80.29;94689.88;5079780;28;20190;-42
2023/05/26 00:54:09;;;;;;;5.33;3.20;;;;;;;16.95;80.56;94694.06;5078592;28;20186;-45
2023/05/26 00:56:36;;;;;;;2.33;2.13;;;;;;;16.95;80.49;94694.06;5079051;28;20225;-42
2023/05/26 00:59:04;;;;;;;3.03;2.80;;;;;;;16.91;80.55;94693.59;5080158;28;20651;-44
2023/05/26 01:01:31;;;;;;;2.77;2.57;;;;;;;16.92;80.61;94699.56;5079186;28;20281;-45
2023/05/26 01:03:58;;;;;;;2.70;2.50;;;;;;;16.92;80.51;94699.56;5078915;28;20194;-42
2023/05/26 01:06:25;;;;;;;4.63;2.57;;;;;;;16.90;80.91;94704.13;5073049;28;20342;-44
2023/05/26 01:08:52;;;;;;;2.73;2.53;;;;;;;16.90;80.65;94706.69;5072958;28;20201;-42
2023/05/26 01:11:27;;;;;;;5.00;2.67;;;;;;;16.89;80.72;94705.09;5072823;28;20198;-43
2023/05/26 01:13:58;;;;;;;2.70;2.50;;;;;;;16.82;80.55;94697.25;5073351;28;20194;-41
2023/05/26 01:16:30;;;;;;;2.77;2.57;;;;;;;16.85;80.61;94699.47;5072775;28;20194;-44
2023/05/26 01:19:06;;;;;;;4.43;2.83;;;;;;;16.84;80.72;94704.81;5072303;28;20218;-44
2023/05/26 01:21:39;;;;;;;3.07;2.80;;;;;;;16.82;80.67;94704.19;5072728;28;20273;-42
2023/05/26 01:24:20;;;;;;;3.43;2.40;;;;;;;16.81;80.75;94703.41;5072862;28;20198;-43
2023/05/26 01:27:03;;;;;;;2.60;2.40;;;;;;;16.66;80.49;94687.03;5072450;28;20232;-45
2023/05/26 01:29:34;;;;;;;5.27;2.70;;;;;;;16.79;80.63;94705.34;5072926;28;20191;-45
2023/05/26 01:32:07;;;;;;;3.67;2.63;;;;;;;16.76;80.57;94701.34;5073027;28;20187;-43
2023/05/26 01:34:34;;;;;;;3.67;2.70;;;;;;;16.75;80.67;94701.50;5072067;28;20194;-44
2023/05/26 01:37:01;;;;;;;5.13;2.90;;;;;;;16.72;80.75;94700.09;5072243;28;20217;-44
2023/05/26 01:39:28;;;;;;;5.13;2.70;;;;;;;16.73;80.68;94704.25;5072217;28;20178;-44
2023/05/26 01:42:03;;;;;;;3.27;2.40;;;;;;;16.73;80.79;94698.28;5072336;28;20654;-45
2023/05/26 01:44:36;;;;;;;2.80;2.60;;;;;;;16.71;80.90;94708.78;5072142;28;20197;-42
2023/05/26 01:47:04;;;;;;;5.83;2.40;;;;;;;16.66;80.68;94695.56;5072016;28;20198;-44
2023/05/26 01:49:34;;;;;;;3.43;2.70;;;;;;;16.68;80.93;94711.72;5071988;28;20190;-43
2023/05/26 01:52:07;;;;;;;2.50;2.27;;;;;;;16.68;80.71;94710.91;5072324;28;20198;-45
2023/05/26 01:54:35;;;;;;;2.67;2.47;;;;;;;16.60;80.83;94696.28;5072626;28;20187;-43
2023/05/26 01:57:05;;;;;;;3.03;2.43;;;;;;;16.66;80.83;94712.84;5072629;28;20285;-43
2023/05/26 01:59:34;;;;;;;4.80;2.57;;;;;;;16.64;80.86;94707.88;5072007;28;20187;-42
2023/05/26 02:02:01;;;;;;;4.17;2.70;;;;;;;16.64;80.79;94704.50;5072338;28;20182;-44
2023/05/26 02:04:28;;;;;;;2.50;2.30;;;;;;;16.62;80.93;94704.63;5071318;28;20271;-51
2023/05/26 02:06:57;;;;;;;3.57;2.67;;;;;;;16.45;80.98;94677.34;5071672;28;20191;-43
2023/05/26 02:09:24;;;;;;;2.70;2.50;;;;;;;16.55;80.75;94701.16;5071956;28;20204;-45
2023/05/26 02:11:51;;;;;;;2.60;2.40;;;;;;;16.54;80.90;94700.38;5072096;28;20226;-44
2023/05/26 02:14:17;;;;;;;2.47;2.27;;;;;;;16.60;80.76;94710.97;5071971;28;20191;-45
2023/05/26 02:16:45;;;;;;;8.67;3.40;;;;;;;16.58;80.83;94708.56;5071916;28;20201;-44
2023/05/26 02:19:13;;;;;;;3.07;2.77;;;;;;;16.30;80.66;94672.16;5071306;28;20218;-47
2023/05/26 02:21:40;;;;;;;3.17;2.87;;;;;;;16.51;80.82;94702.50;5071646;28;20221;-46
2023/05/26 02:24:07;;;;;;;7.97;2.73;;;;;;;16.54;80.72;94709.91;5073852;28;20289;-45
2023/05/26 02:26:35;;;;;;;4.47;2.73;;;;;;;16.53;80.61;94708.28;5072371;28;20201;-45
2023/05/26 02:29:01;;;;;;;2.83;2.50;;;;;;;16.51;80.78;94708.44;5071982;28;20806;-46
2023/05/26 02:31:28;;;;;;;2.87;2.63;;;;;;;16.51;80.59;94711.03;5071569;28;20179;-45
2023/05/26 02:33:56;;;;;;;3.83;2.77;;;;;;;16.48;80.61;94702.84;5071570;28;20673;-46
2023/05/26 02:36:23;;;;;;;5.10;2.80;;;;;;;16.44;80.85;94699.78;5071551;28;20240;-46
2023/05/26 02:38:50;;;;;;;2.70;2.50;;;;;;;16.43;80.71;94703.34;5073328;28;20214;-44
2023/05/26 02:41:17;;;;;;;5.90;3.20;;;;;;;16.46;80.71;94710.75;5072031;28;20198;-46
2023/05/26 02:43:44;;;;;;;3.20;2.60;;;;;;;16.41;80.61;94699.34;5073156;28;20183;-44
2023/05/26 02:46:11;;;;;;;2.67;2.47;;;;;;;16.44;80.72;94704.16;5073986;28;20196;-45
2023/05/26 02:48:38;;;;;;;3.07;2.57;;;;;;;16.44;80.63;94701.56;5074191;28;20195;-44
2023/05/26 02:51:06;;;;;;;4.77;3.00;;;;;;;16.43;80.82;94708.50;5070809;28;20186;-44
2023/05/26 02:53:33;;;;;;;2.90;2.60;;;;;;;16.44;80.74;94712.69;5071157;28;20244;-44
2023/05/26 02:56:00;;;;;;;3.23;2.50;;;;;;;16.44;80.75;94711.91;5071202;28;20210;-45
2023/05/26 02:58:28;;;;;;;3.47;2.93;;;;;;;16.43;80.74;94705.94;5071227;28;20302;-43
2023/05/26 03:00:55;;;;;;;3.37;2.77;;;;;;;16.43;80.78;94705.94;5071564;28;20256;-44
2023/05/26 03:03:22;;;;;;;4.80;3.07;;;;;;;16.48;80.92;94713.94;5071491;28;20252;-43
2023/05/26 03:05:48;;;;;;;6.83;2.80;;;;;;;16.49;81.01;94713.00;5075329;28;20707;-46
2023/05/26 03:08:17;;;;;;;2.63;2.43;;;;;;;16.52;80.80;94719.56;5078744;28;20194;-49
2023/05/26 03:10:43;;;;;;;3.40;3.10;;;;;;;16.55;80.96;94719.25;5073841;28;20573;-45
2023/05/26 03:13:10;;;;;;;3.30;2.83;;;;;;;16.44;81.01;94696.41;5073478;28;20324;-44
2023/05/26 03:15:39;;;;;;;5.20;2.90;;;;;;;16.58;80.95;94721.47;5071928;28;20186;-44
2023/05/26 03:18:06;;;;;;;3.53;2.57;;;;;;;16.65;80.86;94734.50;5070288;28;20318;-45
2023/05/26 03:20:33;;;;;;;5.13;2.80;;;;;;;16.68;80.81;94737.53;5070239;28;20220;-45
2023/05/26 03:23:00;;;;;;;3.33;3.03;;;;;;;16.71;80.82;94742.34;5070322;28;20708;-44
2023/05/26 03:25:28;;;;;;;4.43;2.83;;;;;;;16.75;80.82;94746.22;5070318;28;20658;-44
2023/05/26 03:27:55;;;;;;;5.57;2.80;;;;;;;16.78;80.64;94752.81;5070358;28;20226;-44
2023/05/26 03:30:22;;;;;;;5.27;2.80;;;;;;;16.80;80.50;94756.03;5070063;28;20182;-45
2023/05/26 03:32:49;;;;;;;3.13;2.83;;;;;;;16.84;80.53;94757.28;5070362;28;20251;-47
2023/05/26 03:35:15;;;;;;;7.47;3.10;;;;;;;16.88;80.30;94755.13;5069355;28;20907;-45
2023/05/26 03:37:42;;;;;;;3.63;2.90;;;;;;;16.91;80.34;94747.06;5070235;28;20221;-44
2023/05/26 03:40:10;;;;;;;6.27;2.60;;;;;;;16.97;80.20;94748.94;5070188;28;20186;-45
2023/05/26 03:42:38;;;;;;;3.10;2.80;;;;;;;17.02;79.96;94746.63;5069936;28;20228;-43
2023/05/26 03:45:05;;;;;;;5.33;2.93;;;;;;;17.08;79.81;94750.28;5070424;28;20236;-43
2023/05/26 03:47:32;;;;;;;6.00;3.00;;;;;;;17.11;79.57;94755.13;5070153;28;20193;-44
2023/05/26 03:49:59;;;;;;;5.40;2.70;;;;;;;17.16;79.60;94752.81;5070013;28;20202;-46
2023/05/26 03:52:26;;;;;;;4.90;2.77;;;;;;;17.21;79.59;94753.06;5070528;28;20187;-44
2023/05/26 03:54:53;;;;;;;5.57;3.10;;;;;;;17.25;79.38;94757.69;5069401;28;20277;-44
2023/05/26 03:57:20;;;;;;;3.83;2.97;;;;;;;17.32;79.22;94754.44;5070413;28;20190;-44
2023/05/26 03:59:48;;;;;;;3.30;3.00;;;;;;;17.40;78.92;94754.31;5071643;28;20222;-47
2023/05/26 04:02:15;;;;;;;3.47;3.10;;;;;;;17.25;78.52;94710.38;5071666;28;20201;-45
2023/05/26 04:04:41;;;;;;;3.50;3.20;;;;;;;17.57;78.36;94753.16;5070310;28;20198;-44
2023/05/26 04:07:08;;;;;;;3.70;3.40;;;;;;;17.63;77.94;94749.88;5070393;28;20194;-45
2023/05/26 04:09:35;;;;;;;5.83;3.27;;;;;;;17.74;77.84;94740.88;5069665;28;20587;-45
2023/05/26 04:12:02;;;;;;;3.23;2.93;;;;;;;17.13;77.53;94642.03;5069774;28;20260;-44
2023/05/26 04:14:29;;;;;;;6.10;3.40;;;;;;;17.89;77.28;94738.28;5070043;28;20284;-46
2023/05/26 04:16:57;;;;;;;4.30;3.20;;;;;;;18.00;77.17;94746.38;5069878;28;20202;-46
2023/05/26 04:19:24;;;;;;;3.20;2.90;;;;;;;18.07;76.86;94737.88;5069875;28;20229;-43
2023/05/26 04:21:51;;;;;;;4.57;3.83;;;;;;;18.22;76.52;94747.22;5069605;28;20198;-42
2023/05/26 04:24:18;;;;;;;4.87;3.73;;;;;;;18.31;76.40;94737.53;5069194;28;20193;-45
2023/05/26 04:26:44;;;;;;;7.17;4.00;;;;;;;18.44;76.08;94740.25;5069834;28;20244;-46
2023/05/26 04:29:11;;;;;;;4.27;3.57;;;;;;;18.56;75.80;94740.56;5075539;28;20792;-45
2023/05/26 04:31:40;;;;;;;6.30;3.47;;;;;;;18.65;75.31;94746.41;5071460;28;20188;-45
2023/05/26 04:34:10;;;;;;;5.53;3.80;;;;;;;18.81;75.22;94751.38;5069777;28;20293;-45
2023/05/26 04:36:38;;;;;;;4.87;3.43;;;;;;;18.96;74.79;94748.72;5069630;28;20614;-46
2023/05/26 04:39:05;;;;;;;4.30;3.83;;;;;;;19.07;74.42;94747.38;5069633;28;20203;-45
2023/05/26 04:41:33;;;;;;;4.20;3.37;;;;;;;19.18;73.96;94744.28;5070014;28;20186;-45
2023/05/26 04:44:00;;;;;;;3.77;3.20;;;;;;;19.27;73.63;94741.34;5069762;28;20213;-45
2023/05/26 04:46:28;;;;;;;5.73;3.60;;;;;;;19.50;73.36;94751.44;5069642;28;20191;-45
2023/05/26 04:48:57;;;;;;;4.27;3.87;;;;;;;19.65;73.04;94753.16;5069250;28;20190;-45
2023/05/26 04:51:26;;;;;;;13.03;4.00;;;;;;;19.76;72.93;94756.00;5069480;28;20656;-47
2023/05/26 04:53:52;;;;;;;3.73;3.47;;;;;;;19.90;72.43;94751.66;5069507;28;20193;-46
2023/05/26 04:56:19;;;;;;;3.60;3.30;;;;;;;20.03;71.99;94756.94;5069306;28;20194;-45
2023/05/26 04:58:46;;;;;;;4.27;3.63;;;;;;;20.17;71.19;94751.78;5069227;28;20320;-46
2023/05/26 05:01:13;;;;;;;4.10;3.80;;;;;;;20.32;71.03;94749.00;5068870;28;20674;-45
2023/05/26 05:03:42;;;;;;;3.63;3.33;;;;;;;20.48;70.29;94746.09;5069067;28;20665;-46
2023/05/26 05:06:09;;;;;;;6.33;3.77;;;;;;;20.60;69.63;94743.72;5069964;28;20231;-48
2023/05/26 05:08:38;;;;;;;3.67;3.37;;;;;;;20.83;69.11;94735.53;5069675;28;20190;-44
2023/05/26 05:11:05;;;;;;;4.57;3.10;;;;;;;21.15;68.32;94739.09;5069095;28;20232;-46
2023/05/26 05:13:33;;;;;;;3.42;3.13;;;;;;;21.54;68.00;94746.06;5069106;28;20255;-45
2023/05/26 05:16:00;;;;;;;3.67;3.08;;;;;;;22.01;67.52;94737.09;5069356;28;20243;-46
2023/05/26 05:18:27;;;;;;;5.75;3.80;;;;;;;22.33;66.74;94698.09;5069484;28;20240;-46
2023/05/26 05:20:54;;;;;;;5.07;3.10;;;;;;;23.07;66.04;94730.47;5069214;28;20198;-44
2023/05/26 05:23:21;;;;;;;4.28;2.95;;;;;;;23.67;65.42;94737.75;5069554;28;20194;-44
2023/05/26 05:25:49;;;;;;;2.70;2.50;;;;;;;24.25;64.80;94737.25;5069461;28;20186;-47
2023/05/26 05:28:16;;;;;;;5.00;2.80;;;;;;;24.82;62.92;94739.47;5069198;28;20627;-48
2023/05/26 05:30:43;;;;;;;2.92;2.60;;;;;;;25.39;61.38;94743.22;5068896;28;20255;-46
2023/05/26 05:33:09;;;;;;;9.52;2.65;;;;;;;26.01;60.06;94740.84;5069578;28;20201;-45
2023/05/26 05:35:36;;;;;;;6.07;2.60;;;;;;;26.66;58.24;94736.28;5070232;28;20647;-45
2023/05/26 05:38:04;;;;;;;2.45;2.28;;;;;;;27.36;56.93;94743.69;5072463;28;20652;-45
2023/05/26 05:40:31;;;;;;;2.15;2.05;;;;;;;28.10;55.45;94759.16;5072970;28;20194;-45
2023/05/26 05:43:00;;;;;;;2.72;2.47;;;;;;;28.81;53.79;94759.13;5072752;28;20179;-45
2023/05/26 05:45:27;;;;;;;2.35;2.00;;;;;;;29.47;52.21;94764.13;5070994;28;20201;-49
2023/05/26 05:47:54;;;;;;;2.10;2.00;;;;;;;30.07;50.86;94759.47;5069228;28;20199;-45
2023/05/26 05:50:21;;;;;;;2.67;2.47;;;;;;;30.66;49.67;94764.41;5072859;28;20186;-45
2023/05/26 05:52:47;;;;;;;3.83;2.15;;;;;;;31.26;48.08;94768.16;5072744;28;20182;-42
2023/05/26 05:55:15;;;;;;;4.07;2.67;;;;;;;31.86;46.72;94760.44;5072082;28;20676;-45
2023/05/26 05:57:41;;;;;;;3.17;2.38;;;;;;;32.41;44.50;94770.03;5072258;28;20541;-42
2023/05/26 06:00:11;;;;;;;2.33;2.03;;;;;;;33.02;43.28;94770.72;5071862;28;20233;-47
2023/05/26 06:02:38;;;;;;;2.30;2.10;;;;;;;33.62;42.00;94766.78;5071585;28;20190;-43
2023/05/26 06:05:05;;;;;;;3.55;2.22;;;;;;;34.07;41.05;94734.72;5072133;28;20197;-44
2023/05/26 06:07:32;;;;;;;2.70;2.40;;;;;;;34.77;40.19;94764.09;5071440;28;20228;-47
2023/05/26 06:09:59;;;;;;;2.42;2.22;;;;;;;35.36;39.34;94769.84;5070406;28;20272;-45
2023/05/26 06:12:26;;;;;;;2.55;2.35;;;;;;;35.91;38.55;94761.94;5069907;28;20230;-45
2023/05/26 06:14:53;;;;;;;5.20;2.50;;;;;;;36.37;37.28;94753.88;5071585;28;20198;-47
2023/05/26 06:17:21;;;;;;;3.83;2.30;;;;;;;36.94;36.48;94771.31;5071296;28;20191;-46
2023/05/26 06:19:48;;;;;;;4.45;2.80;;;;;;;37.43;35.97;94773.09;5071412;28;20218;-46
2023/05/26 06:22:15;;;;;;;3.53;3.00;;;;;;;37.85;35.17;94773.59;5071289;28;20695;-48
2023/05/26 06:24:42;;;;;;;5.32;2.88;;;;;;;38.24;34.29;94766.69;5071442;28;20647;-45
2023/05/26 06:27:09;;;;;;;4.22;2.72;;;;;;;38.61;33.58;94770.72;5070573;28;20214;-45
2023/05/26 06:29:35;;;;;;;3.58;2.60;;;;;;;38.88;32.98;94769.63;5071359;28;20198;-43
2023/05/26 06:32:02;;;;;;;3.20;2.53;;;;;;;39.28;32.56;94775.59;5070812;28;20194;-43
2023/05/26 06:34:31;;;;;;;4.47;2.05;;;;;;;39.62;32.11;94784.66;5072770;28;20209;-45
2023/05/26 06:36:57;;;;;;;3.22;2.70;;;;;;;39.98;31.94;94780.75;5071278;28;20200;-44
2023/05/26 06:39:26;;;;;;;6.60;2.83;;;;;;;40.35;31.67;94787.22;5070635;28;20617;-45
2023/05/26 06:41:53;;;;;;;6.05;2.60;;;;;;;40.67;30.92;94783.09;5070047;28;20623;-45
2023/05/26 06:44:19;;;;;;;5.45;2.45;;;;;;;40.99;30.66;94780.84;5070910;28;20186;-44
2023/05/26 06:46:46;;;;;;;5.82;2.58;;;;;;;41.27;30.76;94789.09;5070619;28;20193;-43
2023/05/26 06:49:13;;;;;;;4.43;2.60;;;;;;;41.53;30.40;94791.53;5070516;28;20201;-44
2023/05/26 06:51:41;;;;;;;4.65;2.88;;;;;;;41.76;30.22;94790.03;5070427;28;20803;-50
2023/05/26 06:54:08;;;;;;;5.35;2.50;;;;;;;41.96;29.85;94790.28;5070436;28;20186;-43
2023/05/26 06:56:36;;;;;;;4.88;3.05;;;;;;;42.13;29.63;94790.06;5070518;28;20197;-44
2023/05/26 06:59:02;;;;;;;7.70;3.20;;;;;;;42.24;29.49;94785.84;5072845;28;20232;-45
2023/05/26 07:01:30;;;;;;;2.97;2.65;;;;;;;42.35;28.55;94776.19;5072554;28;20684;-45
2023/05/26 07:03:57;;;;;;;3.35;2.50;;;;;;;42.50;28.80;94780.13;5070213;28;20285;-45
2023/05/26 07:06:24;;;;;;;3.63;2.53;;;;;;;42.64;28.06;94777.09;5070859;28;20208;-46
2023/05/26 07:08:52;;;;;;;7.60;3.20;;;;;;;42.83;28.05;94776.47;5070144;28;20596;-46
2023/05/26 07:11:18;;;;;;;4.40;2.47;;;;;;;42.97;28.09;94771.50;5069363;28;20194;-45
2023/05/26 07:13:46;;;;;;;3.92;2.72;;;;;;;43.06;27.67;94768.69;5070246;28;20194;-46
2023/05/26 07:16:13;;;;;;;3.35;2.13;;;;;;;43.18;27.80;94771.31;5069697;28;20213;-43
2023/05/26 07:18:40;;;;;;;6.80;2.78;;;;;;;43.28;27.60;94768.13;5069935;28;20197;-46
2023/05/26 07:21:07;;;;;;;2.72;2.50;;;;;;;43.41;26.85;94776.16;5069184;28;20190;-46
2023/05/26 07:23:33;;;;;;;3.08;2.83;;;;;;;43.52;26.82;94772.59;5069939;28;20213;-52
2023/05/26 07:26:02;;;;;;;4.43;2.50;;;;;;;43.48;27.18;94744.78;5068434;28;20189;-44
2023/05/26 07:28:28;;;;;;;3.35;2.70;;;;;;;43.77;26.94;94775.94;5069533;28;20343;-45
2023/05/26 07:30:55;;;;;;;2.63;2.42;;;;;;;43.87;27.09;94776.56;5069554;28;20212;-45
2023/05/26 07:33:22;;;;;;;3.10;2.42;;;;;;;43.96;26.39;94782.56;5069495;28;20197;-46
2023/05/26 07:35:49;;;;;;;3.40;2.60;;;;;;;44.01;26.18;94779.63;5069032;28;20193;-46
2023/05/26 07:38:17;;;;;;;5.57;3.00;;;;;;;44.03;26.59;94775.44;5067082;28;20216;-47
2023/05/26 07:40:44;;;;;;;3.03;2.72;;;;;;;44.01;26.37;94775.00;5070209;28;20280;-46
2023/05/26 07:43:13;;;;;;;2.95;2.70;;;;;;;44.00;25.87;94775.34;5069332;28;20244;-44
2023/05/26 07:45:40;;;;;;;3.50;2.85;;;;;;;43.94;26.10;94776.75;5069224;28;20197;-46
2023/05/26 07:48:06;;;;;;;3.50;2.72;;;;;;;43.87;26.28;94782.72;5068220;28;21409;-46
2023/05/26 07:50:33;;;;;;;4.53;2.90;;;;;;;43.77;25.97;94770.53;5069158;28;20263;-44
2023/05/26 07:53:00;;;;;;;3.95;2.70;;;;;;;43.65;26.17;94769.84;5068968;28;20200;-44
2023/05/26 07:55:27;;;;;;;4.07;2.78;;;;;;;43.55;25.90;94771.94;5066199;28;20608;-46
2023/05/26 07:57:54;;;;;;;4.07;2.78;;;;;;;43.48;25.89;94770.94;5065787;28;20201;-46
2023/05/26 08:00:22;;;;;;;5.95;2.83;;;;;;;43.42;25.76;94770.41;5067012;28;20234;-46
2023/05/26 08:02:49;;;;;;;4.28;2.55;;;;;;;43.38;25.63;94764.13;5068550;28;20201;-44
2023/05/26 08:05:16;;;;;;;3.35;2.67;;;;;;;43.37;26.00;94759.09;5069084;28;20679;-45
2023/05/26 08:07:43;;;;;;;3.67;2.60;;;;;;;43.39;26.13;94762.22;5068851;28;20697;-51
2023/05/26 08:10:10;;;;;;;2.67;2.47;;;;;;;43.37;25.88;94756.41;5068561;28;20182;-45
2023/05/26 08:12:37;;;;;;;3.85;2.75;;;;;;;43.33;25.51;94759.00;5067172;28;21072;-44
2023/05/26 08:15:04;;;;;;;2.83;2.50;;;;;;;43.34;25.43;94758.66;5068385;28;20653;-45
2023/05/26 08:17:33;;;;;;;4.70;2.47;;;;;;;43.38;25.88;94761.44;5065867;28;20221;-45
2023/05/26 08:19:59;;;;;;;6.20;2.78;;;;;;;43.36;25.84;94762.94;5068858;28;20777;-46
2023/05/26 08:22:26;;;;;;;4.35;2.72;;;;;;;43.28;26.01;94760.03;5066166;28;20198;-46
2023/05/26 08:24:53;;;;;;;8.20;2.75;;;;;;;42.79;27.99;94754.84;5065553;28;20190;-44
2023/05/26 08:27:20;;;;;;;5.55;2.22;;;;;;;41.58;28.79;94757.22;5065748;28;20229;-45
2023/05/26 08:29:47;;;;;;;6.25;2.75;;;;;;;40.45;30.14;94748.53;5068291;28;20231;-44
2023/05/26 08:32:13;;;;;;;3.10;2.58;;;;;;;39.49;30.76;94745.47;5068297;28;20189;-45
2023/05/26 08:34:42;;;;;;;5.30;2.75;;;;;;;38.43;28.35;94740.50;5068393;28;20190;-45
2023/05/26 08:37:11;;;;;;;6.90;3.38;;;;;;;37.18;29.01;94726.47;5068740;28;20200;-45
2023/05/26 08:39:38;;;;;;;8.00;2.97;;;;;;;35.64;31.81;94730.81;5068189;28;20261;-44
2023/05/26 08:42:07;;;;;;;5.68;2.63;;;;;;;34.62;33.74;94721.81;5068870;28;20209;-44
2023/05/26 08:44:35;;;;;;;5.50;3.42;;;;;;;33.98;35.05;94721.28;5067794;28;20206;-44
2023/05/26 08:47:03;;;;;;;4.60;3.35;;;;;;;33.24;35.13;94720.69;5068566;28;20620;-45
2023/05/26 08:49:36;;;;;;;4.95;3.67;;;;;;;32.32;36.34;94686.13;5068074;28;20202;-41
2023/05/26 08:52:11;;;;;;;8.52;3.88;;;;;;;31.81;36.89;94696.94;5065440;28;20205;-45
2023/05/26 08:54:38;;;;;;;5.63;4.43;;;;;;;31.56;39.42;94727.69;5066711;28;20204;-45
2023/05/26 08:57:05;;;;;;;6.03;5.05;;;;;;;31.08;40.19;94731.69;5066844;28;20191;-45
2023/05/26 08:59:33;;;;;;;7.28;4.78;;;;;;;30.46;41.39;94730.84;5065614;28;20216;-44
2023/05/26 09:02:00;;;;;;;6.80;5.78;;;;;;;30.18;41.62;94716.25;5065450;28;20269;-44
2023/05/26 09:04:29;;;;;;;7.88;5.85;;;;;;;29.78;43.13;94725.56;5065237;28;20267;-46
2023/05/26 09:06:57;;;;;;;7.82;4.78;;;;;;;29.47;43.91;94709.56;5065754;28;20697;-43
2023/05/26 09:09:25;;;;;;;6.28;4.50;;;;;;;29.28;44.01;94681.28;5066496;28;20247;-45
2023/05/26 09:11:53;;;;;;;7.13;4.82;;;;;;;28.70;44.44;94675.84;5067453;28;20235;-42
2023/05/26 09:14:22;;;;;;;5.82;4.22;;;;;;;28.69;44.32;94709.25;5067420;28;20237;-44
2023/05/26 09:16:48;;;;;;;5.00;4.50;;;;;;;28.45;45.27;94713.25;5067155;28;20214;-43
2023/05/26 09:19:18;;;;;;;4.10;3.70;;;;;;;28.21;45.36;94705.63;5070318;28;20198;-44
2023/05/26 09:21:49;;;;;;;9.75;4.05;;;;;;;27.89;45.86;94700.28;5069759;28;20672;-46
2023/05/26 09:24:17;;;;;;;8.50;4.10;;;;;;;27.63;46.87;94707.00;5069941;28;20218;-45
2023/05/26 09:26:47;;;;;;;4.35;3.95;;;;;;;27.41;46.68;94707.00;5069119;28;20210;-45
2023/05/26 09:29:14;;;;;;;5.88;3.97;;;;;;;27.40;46.57;94723.78;5069716;28;20198;-47
2023/05/26 09:31:42;;;;;;;5.35;3.72;;;;;;;27.18;45.99;94728.22;5068984;28;21124;-45
2023/05/26 09:34:10;;;;;;;3.58;3.28;;;;;;;27.14;45.77;94720.00;5069320;28;20198;-45
2023/05/26 09:36:37;;;;;;;6.22;3.70;;;;;;;27.13;46.28;94730.78;5069139;28;20201;-45
2023/05/26 09:39:06;;;;;;;6.93;3.67;;;;;;;27.10;47.10;94726.00;5069438;28;20573;-44
2023/05/26 09:41:37;;;;;;;7.40;4.32;;;;;;;26.82;47.74;94695.34;5068967;28;20218;-41
2023/05/26 09:44:12;;;;;;;4.85;4.30;;;;;;;26.83;48.07;94710.06;5069531;28;20284;-44
2023/05/26 09:46:40;;;;;;;4.55;4.15;;;;;;;26.69;48.88;94710.38;5069866;28;20182;-44
2023/05/26 09:49:15;;;;;;;6.82;4.78;;;;;;;26.49;50.91;94699.53;5069078;28;20198;-43
2023/05/26 09:51:42;;;;;;;10.40;5.38;;;;;;;26.37;52.78;94702.19;5068637;28;20225;-44
2023/05/26 09:54:10;;;;;;;7.65;5.43;;;;;;;26.17;54.10;94701.84;5067857;28;20198;-45
2023/05/26 09:56:42;;;;;;;9.13;6.15;;;;;;;26.10;55.49;94719.50;5069478;28;20353;-44
2023/05/26 09:59:10;;;;;;;8.75;5.60;;;;;;;25.76;56.47;94717.56;5070048;28;20198;-42
2023/05/26 10:01:39;;;;;;;8.55;6.55;;;;;;;25.33;56.71;94715.31;5068737;28;20228;-46
2023/05/26 10:04:08;;;;;;;9.25;5.57;;;;;;;25.09;57.95;94721.59;5068917;28;20226;-44
2023/05/26 10:06:36;;;;;;;10.27;5.93;;;;;;;24.84;58.13;94724.38;5069568;28;20814;-43
2023/05/26 10:09:04;;;;;;;8.77;5.65;;;;;;;24.61;58.50;94725.09;5069677;28;20264;-44
2023/05/26 10:11:33;;;;;;;6.47;5.82;;;;;;;24.42;60.49;94712.09;5069211;28;20293;-43
2023/05/26 10:14:00;;;;;;;7.25;6.00;;;;;;;24.31;62.73;94718.06;5069020;28;20202;-46
2023/05/26 10:16:27;;;;;;;6.78;5.13;;;;;;;24.17;63.96;94729.69;5067543;28;20209;-44
2023/05/26 10:18:56;;;;;;;8.05;5.47;;;;;;;23.85;64.77;94724.69;5068521;28;20202;-46
2023/05/26 10:21:28;;;;;;;9.60;4.90;;;;;;;23.52;65.54;94722.41;5067434;28;20578;-41
2023/05/26 10:24:03;;;;;;;5.75;4.85;;;;;;;23.42;64.84;94722.91;5066825;28;20193;-44
2023/05/26 10:26:35;;;;;;;10.30;3.83;;;;;;;23.31;61.87;94723.59;5068216;28;20198;-44
2023/05/26 10:29:05;;;;;;;5.57;3.92;;;;;;;23.28;61.03;94717.03;5068373;28;20201;-46
2023/05/26 10:31:32;;;;;;;4.93;4.03;;;;;;;23.35;60.92;94718.75;5067598;28;20198;-46
2023/05/26 10:34:01;;;;;;;5.70;4.20;;;;;;;23.32;60.85;94704.34;5068585;28;20202;-43
2023/05/26 10:36:31;;;;;;;4.30;3.90;;;;;;;23.28;60.23;94683.09;5068527;28;20201;-44
2023/05/26 10:38:58;;;;;;;3.58;3.13;;;;;;;23.27;58.66;94706.78;5068604;28;20190;-44
2023/05/26 10:41:32;;;;;;;6.45;3.65;;;;;;;23.14;58.48;94714.72;5070516;28;20229;-44
2023/05/26 10:44:00;;;;;;;4.82;3.72;;;;;;;23.14;59.45;94701.69;5070558;28;20186;-42
2023/05/26 10:46:37;;;;;;;5.90;3.95;;;;;;;22.74;60.24;94636.81;5070736;28;20224;-47
2023/05/26 10:49:18;;;;;;;8.40;3.75;;;;;;;23.28;60.12;94698.75;5070906;28;20236;-45
2023/05/26 10:51:50;;;;;;;5.75;3.25;;;;;;;23.29;58.55;94702.97;5070541;28;20194;-45
2023/05/26 10:54:22;;;;;;;7.78;3.67;;;;;;;23.28;58.55;94701.38;5070569;28;20296;-43
2023/05/26 10:56:51;;;;;;;6.82;3.45;;;;;;;23.25;58.96;94693.16;5067657;28;20596;-43
2023/05/26 10:59:24;;;;;;;11.75;3.65;;;;;;;23.12;59.94;94699.31;5067898;28;20657;-43
2023/05/26 11:01:52;;;;;;;3.60;3.30;;;;;;;23.09;59.36;94702.34;5070466;28;20221;-44
2023/05/26 11:04:21;;;;;;;4.93;3.42;;;;;;;23.17;58.88;94709.09;5070296;28;20194;-42
2023/05/26 11:06:50;;;;;;;3.63;3.13;;;;;;;23.23;59.56;94700.44;5069843;28;20205;-43
2023/05/26 11:09:17;;;;;;;3.10;2.80;;;;;;;23.21;59.14;94708.44;5070052;28;20222;-45
2023/05/26 11:11:52;;;;;;;8.40;2.80;;;;;;;23.04;59.65;94687.34;5070109;28;20194;-43
2023/05/26 11:14:24;;;;;;;4.90;3.35;;;;;;;23.09;59.83;94694.50;5070298;28;20202;-45
2023/05/26 11:16:51;;;;;;;6.72;3.50;;;;;;;23.18;60.05;94690.59;5067600;28;20195;-45
2023/05/26 11:19:28;;;;;;;6.18;3.42;;;;;;;23.31;60.51;94696.72;5069798;28;20198;-46
2023/05/26 11:21:55;;;;;;;4.40;3.30;;;;;;;23.40;60.48;94706.69;5069704;28;20328;-46
2023/05/26 11:24:23;;;;;;;6.35;3.63;;;;;;;23.45;60.29;94696.38;5069548;28;20203;-43
2023/05/26 11:26:50;;;;;;;15.57;4.25;;;;;;;23.57;60.58;94696.44;5069309;28;20260;-45
2023/05/26 11:29:16;;;;;;;11.25;3.60;;;;;;;23.65;59.39;94684.94;5069827;28;20221;-45
2023/05/26 11:31:47;;;;;;;7.95;3.05;;;;;;;23.59;59.20;94689.19;5067313;28;20297;-45
2023/05/26 11:34:14;;;;;;;3.88;3.58;;;;;;;23.55;59.14;94682.81;5066871;28;20668;-43
2023/05/26 11:36:46;;;;;;;3.88;3.03;;;;;;;23.59;58.46;94683.97;5066780;28;20189;-43